SYD weather

Sydney Kingsford Smith International Airport
Sydney, New South Wales, Australia

Public forecast

Using degrees Celsius for public forecast. Weather courtesy of forecast.io.

METAR (pilot weather report)

Retrieved 2018/12/10 07:30 UTC (21 minutes ago):

YSSY 100730Z 19017KT 9999 FEW040 SCT120 BKN180 22/19 Q1014

TAF (pilot weather forecast)

Retrieved 2018/12/10 06:00 UTC (2 hours ago):

TAF YSSY 100508Z 1006/1112 07008KT 9999 -SHRA FEW030 BKN120 FM100700 14008KT 9999 FEW025 SCT120 FM100800 16015KT 9999 -SHRA FEW010 SCT020 BKN030 FM110000 14015KT 9999 -SHRA SCT025 BKN035 FM110900 10008KT 9999 SCT020 SCT030 INTER 1010/1021 5000 SHRA BKN010